Terminal Aerodrome Forecast
Issued by NWS Raleigh/Durham, NC

Home | Current Version | Previous Version | Text Only | Print | Product List | Glossary On
Versions: 1 2 3 4 5 6 7 8 9 10 11 12 13 14 15 16 17 18 19 20 21 22 23
000
FTUS42 KRAH 261726
TAFFAY
TAF
KFAY 261726Z 2618/2718 VRB04KT P6SM BKN040
     FM262100 16005KT P6SM VCSH BKN040
      TEMPO 2621/2623 4SM -SHRA BR BKN024
     FM270100 17005KT P6SM BKN030 OVC080
      TEMPO 2704/2706 3SM -SHRA BR SCT012 OVC025
     FM270600 18005KT 6SM -SHRA OVC025
      TEMPO 2706/2708 2SM SHRA BR SCT008 OVC015
     FM270900 19005KT P6SM OVC025
      TEMPO 2709/2713 OVC010=

USA.gov is the U.S. government's official web portal to all federal, state and local government web resources and services.